sensor_id;sensor_type;location;lat;lon;timestamp;P1;durP1;ratioP1;P2;durP2;ratioP2
75971;SDS011;64651;47.540;19.088;2023-04-08T00:04:34;29.63;;;12.15;;
75971;SDS011;64651;47.540;19.088;2023-04-08T00:09:37;30.17;;;12.13;;
75971;SDS011;64651;47.540;19.088;2023-04-08T00:14:39;25.55;;;11.52;;
75971;SDS011;64651;47.540;19.088;2023-04-08T00:19:42;29.20;;;11.85;;
75971;SDS011;64651;47.540;19.088;2023-04-08T00:24:45;33.63;;;13.17;;
75971;SDS011;64651;47.540;19.088;2023-04-08T00:29:47;28.17;;;11.80;;
75971;SDS011;64651;47.540;19.088;2023-04-08T00:34:49;28.58;;;11.38;;
75971;SDS011;64651;47.540;19.088;2023-04-08T00:39:52;28.05;;;12.02;;
75971;SDS011;64651;47.540;19.088;2023-04-08T00:44:55;30.05;;;12.48;;
75971;SDS011;64651;47.540;19.088;2023-04-08T00:49:57;30.53;;;12.30;;
75971;SDS011;64651;47.540;19.088;2023-04-08T00:55:00;30.30;;;13.23;;
75971;SDS011;64651;47.540;19.088;2023-04-08T01:00:03;29.35;;;12.10;;
75971;SDS011;64651;47.540;19.088;2023-04-08T01:05:29;26.62;;;11.27;;
75971;SDS011;64651;47.540;19.088;2023-04-08T01:10:35;28.42;;;11.85;;
75971;SDS011;64651;47.540;19.088;2023-04-08T01:15:39;28.40;;;11.47;;
75971;SDS011;64651;47.540;19.088;2023-04-08T01:20:45;29.48;;;12.05;;
75971;SDS011;64651;47.540;19.088;2023-04-08T01:25:48;29.30;;;12.35;;
75971;SDS011;64651;47.540;19.088;2023-04-08T01:30:55;28.45;;;12.02;;
75971;SDS011;64651;47.540;19.088;2023-04-08T01:36:00;29.17;;;12.02;;
75971;SDS011;64651;47.540;19.088;2023-04-08T01:41:03;29.67;;;12.70;;
75971;SDS011;64651;47.540;19.088;2023-04-08T01:46:06;30.23;;;11.80;;
75971;SDS011;64651;47.540;19.088;2023-04-08T01:51:11;29.60;;;12.57;;
75971;SDS011;64651;47.540;19.088;2023-04-08T01:56:14;31.62;;;12.85;;
75971;SDS011;64651;47.540;19.088;2023-04-08T02:01:19;30.58;;;12.82;;
75971;SDS011;64651;47.540;19.088;2023-04-08T02:06:24;28.13;;;12.07;;
75971;SDS011;64651;47.540;19.088;2023-04-08T02:11:28;31.67;;;12.55;;
75971;SDS011;64651;47.540;19.088;2023-04-08T02:16:33;29.35;;;12.05;;
75971;SDS011;64651;47.540;19.088;2023-04-08T02:21:56;29.90;;;11.98;;
75971;SDS011;64651;47.540;19.088;2023-04-08T02:27:10;28.95;;;11.75;;
75971;SDS011;64651;47.540;19.088;2023-04-08T02:32:12;29.20;;;12.03;;
75971;SDS011;64651;47.540;19.088;2023-04-08T02:37:17;29.92;;;12.07;;
75971;SDS011;64651;47.540;19.088;2023-04-08T02:42:20;29.08;;;12.10;;
75971;SDS011;64651;47.540;19.088;2023-04-08T02:47:22;30.45;;;13.18;;
75971;SDS011;64651;47.540;19.088;2023-04-08T02:52:24;31.85;;;13.00;;
75971;SDS011;64651;47.540;19.088;2023-04-08T02:57:27;27.33;;;11.33;;
75971;SDS011;64651;47.540;19.088;2023-04-08T03:02:29;29.10;;;12.55;;
75971;SDS011;64651;47.540;19.088;2023-04-08T03:07:31;28.67;;;12.05;;
75971;SDS011;64651;47.540;19.088;2023-04-08T03:12:34;30.02;;;12.82;;
75971;SDS011;64651;47.540;19.088;2023-04-08T03:17:36;30.95;;;12.48;;
75971;SDS011;64651;47.540;19.088;2023-04-08T03:22:38;29.50;;;11.97;;
75971;SDS011;64651;47.540;19.088;2023-04-08T03:27:41;28.65;;;11.95;;
75971;SDS011;64651;47.540;19.088;2023-04-08T03:32:43;31.02;;;12.37;;
75971;SDS011;64651;47.540;19.088;2023-04-08T03:37:45;27.02;;;11.98;;
75971;SDS011;64651;47.540;19.088;2023-04-08T03:42:47;28.73;;;12.00;;
75971;SDS011;64651;47.540;19.088;2023-04-08T03:47:50;28.03;;;12.17;;
75971;SDS011;64651;47.540;19.088;2023-04-08T03:52:52;28.75;;;12.07;;
75971;SDS011;64651;47.540;19.088;2023-04-08T03:57:54;28.92;;;12.32;;
75971;SDS011;64651;47.540;19.088;2023-04-08T04:02:56;25.00;;;10.90;;
75971;SDS011;64651;47.540;19.088;2023-04-08T04:07:59;25.65;;;11.05;;
75971;SDS011;64651;47.540;19.088;2023-04-08T04:13:01;25.70;;;11.23;;
75971;SDS011;64651;47.540;19.088;2023-04-08T04:18:03;27.42;;;11.07;;
75971;SDS011;64651;47.540;19.088;2023-04-08T04:23:06;26.35;;;10.70;;
75971;SDS011;64651;47.540;19.088;2023-04-08T04:28:08;26.48;;;11.05;;
75971;SDS011;64651;47.540;19.088;2023-04-08T04:33:11;26.62;;;10.15;;
75971;SDS011;64651;47.540;19.088;2023-04-08T04:38:13;24.30;;;10.23;;
75971;SDS011;64651;47.540;19.088;2023-04-08T04:43:15;24.00;;;10.45;;
75971;SDS011;64651;47.540;19.088;2023-04-08T04:48:17;24.73;;;10.57;;
75971;SDS011;64651;47.540;19.088;2023-04-08T04:53:19;22.85;;;9.45;;
75971;SDS011;64651;47.540;19.088;2023-04-08T04:58:22;21.12;;;9.07;;
75971;SDS011;64651;47.540;19.088;2023-04-08T05:03:24;22.87;;;9.83;;
75971;SDS011;64651;47.540;19.088;2023-04-08T05:08:27;22.15;;;9.70;;
75971;SDS011;64651;47.540;19.088;2023-04-08T05:13:30;22.95;;;9.68;;
75971;SDS011;64651;47.540;19.088;2023-04-08T05:18:33;23.60;;;10.25;;
75971;SDS011;64651;47.540;19.088;2023-04-08T05:23:35;21.77;;;9.18;;
75971;SDS011;64651;47.540;19.088;2023-04-08T05:28:37;22.17;;;9.40;;
75971;SDS011;64651;47.540;19.088;2023-04-08T05:33:39;22.55;;;9.27;;
75971;SDS011;64651;47.540;19.088;2023-04-08T05:38:42;22.95;;;9.68;;
75971;SDS011;64651;47.540;19.088;2023-04-08T05:43:45;21.73;;;9.75;;
75971;SDS011;64651;47.540;19.088;2023-04-08T05:48:47;23.87;;;9.63;;
75971;SDS011;64651;47.540;19.088;2023-04-08T05:53:49;22.90;;;9.93;;
75971;SDS011;64651;47.540;19.088;2023-04-08T05:58:52;21.85;;;9.80;;
75971;SDS011;64651;47.540;19.088;2023-04-08T06:03:54;21.20;;;9.52;;
75971;SDS011;64651;47.540;19.088;2023-04-08T06:08:57;21.10;;;9.48;;
75971;SDS011;64651;47.540;19.088;2023-04-08T06:14:00;20.70;;;8.98;;
75971;SDS011;64651;47.540;19.088;2023-04-08T06:19:02;21.30;;;9.73;;
75971;SDS011;64651;47.540;19.088;2023-04-08T06:24:04;24.55;;;10.25;;
75971;SDS011;64651;47.540;19.088;2023-04-08T06:29:07;31.50;;;13.30;;
75971;SDS011;64651;47.540;19.088;2023-04-08T06:34:09;28.02;;;12.37;;
75971;SDS011;64651;47.540;19.088;2023-04-08T06:39:11;25.42;;;10.65;;
75971;SDS011;64651;47.540;19.088;2023-04-08T06:44:13;26.80;;;11.87;;
75971;SDS011;64651;47.540;19.088;2023-04-08T06:49:16;24.23;;;10.73;;
75971;SDS011;64651;47.540;19.088;2023-04-08T06:54:18;26.15;;;10.43;;
75971;SDS011;64651;47.540;19.088;2023-04-08T06:59:21;27.58;;;11.70;;
75971;SDS011;64651;47.540;19.088;2023-04-08T07:04:23;24.77;;;10.43;;
75971;SDS011;64651;47.540;19.088;2023-04-08T07:09:25;23.87;;;10.77;;
75971;SDS011;64651;47.540;19.088;2023-04-08T07:14:27;28.60;;;11.27;;
75971;SDS011;64651;47.540;19.088;2023-04-08T07:19:30;24.02;;;11.02;;
75971;SDS011;64651;47.540;19.088;2023-04-08T07:24:33;23.33;;;10.45;;
75971;SDS011;64651;47.540;19.088;2023-04-08T07:29:35;26.40;;;11.12;;
75971;SDS011;64651;47.540;19.088;2023-04-08T07:34:37;21.23;;;9.40;;
75971;SDS011;64651;47.540;19.088;2023-04-08T07:39:39;23.30;;;9.95;;
75971;SDS011;64651;47.540;19.088;2023-04-08T07:44:42;21.48;;;9.98;;
75971;SDS011;64651;47.540;19.088;2023-04-08T07:49:47;23.10;;;9.65;;
75971;SDS011;64651;47.540;19.088;2023-04-08T07:54:49;21.65;;;9.45;;
75971;SDS011;64651;47.540;19.088;2023-04-08T07:59:52;19.87;;;9.27;;
75971;SDS011;64651;47.540;19.088;2023-04-08T08:04:54;22.15;;;10.15;;
75971;SDS011;64651;47.540;19.088;2023-04-08T08:09:57;22.00;;;9.27;;
75971;SDS011;64651;47.540;19.088;2023-04-08T08:14:59;20.98;;;9.25;;
75971;SDS011;64651;47.540;19.088;2023-04-08T08:20:01;21.12;;;9.32;;
75971;SDS011;64651;47.540;19.088;2023-04-08T08:25:05;20.97;;;9.40;;
75971;SDS011;64651;47.540;19.088;2023-04-08T08:30:08;20.33;;;9.40;;
75971;SDS011;64651;47.540;19.088;2023-04-08T08:35:10;22.60;;;10.05;;
75971;SDS011;64651;47.540;19.088;2023-04-08T08:40:13;23.50;;;9.40;;
75971;SDS011;64651;47.540;19.088;2023-04-08T08:45:16;21.65;;;9.95;;
75971;SDS011;64651;47.540;19.088;2023-04-08T08:50:20;21.70;;;9.87;;
75971;SDS011;64651;47.540;19.088;2023-04-08T08:55:22;20.17;;;9.68;;
75971;SDS011;64651;47.540;19.088;2023-04-08T09:00:37;20.35;;;9.30;;
75971;SDS011;64651;47.540;19.088;2023-04-08T09:11:12;19.52;;;9.43;;
75971;SDS011;64651;47.540;19.088;2023-04-08T09:16:15;19.30;;;9.43;;
75971;SDS011;64651;47.540;19.088;2023-04-08T09:21:21;18.02;;;8.82;;
75971;SDS011;64651;47.540;19.088;2023-04-08T09:26:25;18.20;;;9.38;;
75971;SDS011;64651;47.540;19.088;2023-04-08T09:31:31;20.25;;;10.15;;
75971;SDS011;64651;47.540;19.088;2023-04-08T09:36:35;20.70;;;9.60;;
75971;SDS011;64651;47.540;19.088;2023-04-08T09:41:37;20.27;;;10.20;;
75971;SDS011;64651;47.540;19.088;2023-04-08T09:51:53;17.48;;;8.48;;
75971;SDS011;64651;47.540;19.088;2023-04-08T09:57:12;18.33;;;8.93;;
75971;SDS011;64651;47.540;19.088;2023-04-08T10:02:18;19.17;;;9.77;;
75971;SDS011;64651;47.540;19.088;2023-04-08T10:07:30;21.20;;;10.40;;
75971;SDS011;64651;47.540;19.088;2023-04-08T10:12:33;19.77;;;9.82;;
75971;SDS011;64651;47.540;19.088;2023-04-08T10:17:35;19.00;;;9.85;;
75971;SDS011;64651;47.540;19.088;2023-04-08T10:22:44;19.50;;;10.23;;
75971;SDS011;64651;47.540;19.088;2023-04-08T10:27:48;19.73;;;10.20;;
75971;SDS011;64651;47.540;19.088;2023-04-08T10:32:51;19.03;;;9.53;;
75971;SDS011;64651;47.540;19.088;2023-04-08T10:37:53;18.87;;;9.63;;
75971;SDS011;64651;47.540;19.088;2023-04-08T10:42:57;18.48;;;9.57;;
75971;SDS011;64651;47.540;19.088;2023-04-08T10:48:19;20.75;;;10.45;;
75971;SDS011;64651;47.540;19.088;2023-04-08T10:53:26;20.37;;;10.93;;
75971;SDS011;64651;47.540;19.088;2023-04-08T10:58:30;21.27;;;10.93;;
75971;SDS011;64651;47.540;19.088;2023-04-08T11:03:33;21.05;;;11.27;;
75971;SDS011;64651;47.540;19.088;2023-04-08T11:08:37;21.65;;;11.65;;
75971;SDS011;64651;47.540;19.088;2023-04-08T11:13:40;20.73;;;11.20;;
75971;SDS011;64651;47.540;19.088;2023-04-08T11:18:54;18.23;;;9.73;;
75971;SDS011;64651;47.540;19.088;2023-04-08T11:23:57;19.43;;;10.67;;
75971;SDS011;64651;47.540;19.088;2023-04-08T11:28:59;16.70;;;9.20;;
75971;SDS011;64651;47.540;19.088;2023-04-08T11:34:03;14.82;;;8.15;;
75971;SDS011;64651;47.540;19.088;2023-04-08T11:39:05;14.52;;;7.37;;
75971;SDS011;64651;47.540;19.088;2023-04-08T11:44:09;14.43;;;7.57;;
75971;SDS011;64651;47.540;19.088;2023-04-08T11:49:11;14.03;;;7.43;;
75971;SDS011;64651;47.540;19.088;2023-04-08T11:54:24;16.00;;;8.35;;
75971;SDS011;64651;47.540;19.088;2023-04-08T11:59:28;16.83;;;8.55;;
75971;SDS011;64651;47.540;19.088;2023-04-08T12:04:30;15.52;;;8.45;;
75971;SDS011;64651;47.540;19.088;2023-04-08T12:09:33;16.48;;;8.75;;
75971;SDS011;64651;47.540;19.088;2023-04-08T12:14:35;16.30;;;8.83;;
75971;SDS011;64651;47.540;19.088;2023-04-08T12:19:37;16.87;;;9.43;;
75971;SDS011;64651;47.540;19.088;2023-04-08T12:24:39;17.23;;;9.60;;
75971;SDS011;64651;47.540;19.088;2023-04-08T12:29:42;17.15;;;9.30;;
75971;SDS011;64651;47.540;19.088;2023-04-08T12:34:46;17.33;;;9.60;;
75971;SDS011;64651;47.540;19.088;2023-04-08T12:39:48;16.33;;;9.20;;
75971;SDS011;64651;47.540;19.088;2023-04-08T12:44:53;17.87;;;10.15;;
75971;SDS011;64651;47.540;19.088;2023-04-08T12:49:55;16.27;;;9.00;;
75971;SDS011;64651;47.540;19.088;2023-04-08T12:54:58;16.60;;;8.57;;
75971;SDS011;64651;47.540;19.088;2023-04-08T13:00:00;16.35;;;8.98;;
75971;SDS011;64651;47.540;19.088;2023-04-08T13:05:02;17.53;;;10.00;;
75971;SDS011;64651;47.540;19.088;2023-04-08T13:10:05;17.83;;;9.30;;
75971;SDS011;64651;47.540;19.088;2023-04-08T13:15:08;16.20;;;9.30;;
75971;SDS011;64651;47.540;19.088;2023-04-08T13:20:11;17.12;;;9.73;;
75971;SDS011;64651;47.540;19.088;2023-04-08T13:25:13;18.80;;;10.13;;
75971;SDS011;64651;47.540;19.088;2023-04-08T13:30:17;16.60;;;9.00;;
75971;SDS011;64651;47.540;19.088;2023-04-08T13:35:19;16.00;;;8.75;;
75971;SDS011;64651;47.540;19.088;2023-04-08T13:40:21;18.50;;;10.10;;
75971;SDS011;64651;47.540;19.088;2023-04-08T13:45:23;16.10;;;8.88;;
75971;SDS011;64651;47.540;19.088;2023-04-08T13:50:26;16.12;;;8.85;;
75971;SDS011;64651;47.540;19.088;2023-04-08T13:55:28;18.97;;;10.27;;
75971;SDS011;64651;47.540;19.088;2023-04-08T14:00:31;16.23;;;8.13;;
75971;SDS011;64651;47.540;19.088;2023-04-08T14:05:33;16.92;;;9.23;;
75971;SDS011;64651;47.540;19.088;2023-04-08T14:10:35;17.35;;;8.77;;
75971;SDS011;64651;47.540;19.088;2023-04-08T14:15:37;16.58;;;9.40;;
75971;SDS011;64651;47.540;19.088;2023-04-08T14:20:40;17.23;;;9.30;;
75971;SDS011;64651;47.540;19.088;2023-04-08T14:25:42;17.12;;;8.65;;
75971;SDS011;64651;47.540;19.088;2023-04-08T14:30:45;15.80;;;8.45;;
75971;SDS011;64651;47.540;19.088;2023-04-08T14:35:48;14.80;;;8.13;;
75971;SDS011;64651;47.540;19.088;2023-04-08T14:40:50;14.23;;;7.87;;
75971;SDS011;64651;47.540;19.088;2023-04-08T14:45:53;14.83;;;7.90;;
75971;SDS011;64651;47.540;19.088;2023-04-08T14:50:55;16.17;;;8.65;;
75971;SDS011;64651;47.540;19.088;2023-04-08T14:55:58;14.38;;;7.95;;
75971;SDS011;64651;47.540;19.088;2023-04-08T15:01:00;14.02;;;7.57;;
75971;SDS011;64651;47.540;19.088;2023-04-08T15:06:03;14.07;;;7.47;;
75971;SDS011;64651;47.540;19.088;2023-04-08T15:11:05;12.97;;;6.77;;
75971;SDS011;64651;47.540;19.088;2023-04-08T15:16:07;14.40;;;7.90;;
75971;SDS011;64651;47.540;19.088;2023-04-08T15:21:11;13.85;;;6.62;;
75971;SDS011;64651;47.540;19.088;2023-04-08T15:26:13;15.18;;;8.10;;
75971;SDS011;64651;47.540;19.088;2023-04-08T15:31:16;14.15;;;7.45;;
75971;SDS011;64651;47.540;19.088;2023-04-08T15:36:18;13.57;;;7.23;;
75971;SDS011;64651;47.540;19.088;2023-04-08T15:41:20;12.30;;;6.28;;
75971;SDS011;64651;47.540;19.088;2023-04-08T15:46:23;15.00;;;8.38;;
75971;SDS011;64651;47.540;19.088;2023-04-08T15:51:25;14.65;;;7.15;;
75971;SDS011;64651;47.540;19.088;2023-04-08T15:56:28;16.33;;;8.65;;
75971;SDS011;64651;47.540;19.088;2023-04-08T16:01:30;14.33;;;7.70;;
75971;SDS011;64651;47.540;19.088;2023-04-08T16:06:34;16.10;;;8.25;;
75971;SDS011;64651;47.540;19.088;2023-04-08T16:11:36;14.75;;;7.87;;
75971;SDS011;64651;47.540;19.088;2023-04-08T16:16:38;16.23;;;8.30;;
75971;SDS011;64651;47.540;19.088;2023-04-08T16:21:41;14.23;;;7.50;;
75971;SDS011;64651;47.540;19.088;2023-04-08T16:26:43;12.47;;;6.60;;
75971;SDS011;64651;47.540;19.088;2023-04-08T16:31:46;13.18;;;6.70;;
75971;SDS011;64651;47.540;19.088;2023-04-08T16:36:48;16.00;;;8.20;;
75971;SDS011;64651;47.540;19.088;2023-04-08T16:41:52;15.15;;;7.82;;
75971;SDS011;64651;47.540;19.088;2023-04-08T16:46:56;16.27;;;7.55;;
75971;SDS011;64651;47.540;19.088;2023-04-08T16:51:58;15.43;;;8.27;;
75971;SDS011;64651;47.540;19.088;2023-04-08T16:57:01;18.02;;;8.50;;
75971;SDS011;64651;47.540;19.088;2023-04-08T17:02:03;15.70;;;7.37;;
75971;SDS011;64651;47.540;19.088;2023-04-08T17:07:05;15.05;;;7.70;;
75971;SDS011;64651;47.540;19.088;2023-04-08T17:12:09;15.60;;;8.10;;
75971;SDS011;64651;47.540;19.088;2023-04-08T17:17:11;15.50;;;7.00;;
75971;SDS011;64651;47.540;19.088;2023-04-08T17:22:14;15.65;;;7.93;;
75971;SDS011;64651;47.540;19.088;2023-04-08T17:27:17;15.32;;;7.75;;
75971;SDS011;64651;47.540;19.088;2023-04-08T17:32:19;16.83;;;7.90;;
75971;SDS011;64651;47.540;19.088;2023-04-08T17:37:21;18.90;;;9.10;;
75971;SDS011;64651;47.540;19.088;2023-04-08T17:42:24;18.70;;;9.33;;
75971;SDS011;64651;47.540;19.088;2023-04-08T17:47:27;18.95;;;9.60;;
75971;SDS011;64651;47.540;19.088;2023-04-08T17:52:29;17.70;;;9.30;;
75971;SDS011;64651;47.540;19.088;2023-04-08T17:57:33;18.20;;;9.00;;
75971;SDS011;64651;47.540;19.088;2023-04-08T18:02:35;19.20;;;9.50;;
75971;SDS011;64651;47.540;19.088;2023-04-08T18:07:39;17.23;;;8.50;;
75971;SDS011;64651;47.540;19.088;2023-04-08T18:12:41;21.17;;;11.27;;
75971;SDS011;64651;47.540;19.088;2023-04-08T18:17:43;15.48;;;7.78;;
75971;SDS011;64651;47.540;19.088;2023-04-08T18:22:45;17.92;;;8.50;;
75971;SDS011;64651;47.540;19.088;2023-04-08T18:27:49;18.52;;;9.10;;
75971;SDS011;64651;47.540;19.088;2023-04-08T18:32:51;15.57;;;7.70;;
75971;SDS011;64651;47.540;19.088;2023-04-08T18:37:53;17.05;;;8.40;;
75971;SDS011;64651;47.540;19.088;2023-04-08T18:42:57;17.70;;;8.68;;
75971;SDS011;64651;47.540;19.088;2023-04-08T18:48:02;17.00;;;8.68;;
75971;SDS011;64651;47.540;19.088;2023-04-08T18:53:05;18.05;;;9.20;;
75971;SDS011;64651;47.540;19.088;2023-04-08T18:58:07;18.70;;;9.60;;
75971;SDS011;64651;47.540;19.088;2023-04-08T19:03:10;20.12;;;9.90;;
75971;SDS011;64651;47.540;19.088;2023-04-08T19:08:12;19.52;;;9.43;;
75971;SDS011;64651;47.540;19.088;2023-04-08T19:13:14;18.50;;;9.55;;
75971;SDS011;64651;47.540;19.088;2023-04-08T19:18:16;18.00;;;9.40;;
75971;SDS011;64651;47.540;19.088;2023-04-08T19:23:19;18.40;;;9.00;;
75971;SDS011;64651;47.540;19.088;2023-04-08T19:28:21;18.48;;;9.35;;
75971;SDS011;64651;47.540;19.088;2023-04-08T19:33:23;17.83;;;9.07;;
75971;SDS011;64651;47.540;19.088;2023-04-08T19:38:28;19.92;;;9.90;;
75971;SDS011;64651;47.540;19.088;2023-04-08T19:43:30;20.85;;;10.45;;
75971;SDS011;64651;47.540;19.088;2023-04-08T19:48:32;20.03;;;10.63;;
75971;SDS011;64651;47.540;19.088;2023-04-08T19:53:35;19.92;;;10.15;;
75971;SDS011;64651;47.540;19.088;2023-04-08T19:58:37;23.10;;;10.35;;
75971;SDS011;64651;47.540;19.088;2023-04-08T20:03:40;21.73;;;10.90;;
75971;SDS011;64651;47.540;19.088;2023-04-08T20:08:53;18.10;;;9.63;;
75971;SDS011;64651;47.540;19.088;2023-04-08T20:13:55;19.27;;;9.73;;
75971;SDS011;64651;47.540;19.088;2023-04-08T20:18:57;22.48;;;11.02;;
75971;SDS011;64651;47.540;19.088;2023-04-08T20:24:00;21.62;;;10.38;;
75971;SDS011;64651;47.540;19.088;2023-04-08T20:29:02;21.33;;;10.27;;
75971;SDS011;64651;47.540;19.088;2023-04-08T20:34:04;20.40;;;10.88;;
75971;SDS011;64651;47.540;19.088;2023-04-08T20:39:10;20.67;;;10.57;;
75971;SDS011;64651;47.540;19.088;2023-04-08T20:44:12;19.90;;;10.27;;
75971;SDS011;64651;47.540;19.088;2023-04-08T20:49:14;21.30;;;10.63;;
75971;SDS011;64651;47.540;19.088;2023-04-08T20:54:17;20.83;;;10.75;;
75971;SDS011;64651;47.540;19.088;2023-04-08T20:59:19;21.33;;;10.70;;
75971;SDS011;64651;47.540;19.088;2023-04-08T21:04:21;19.40;;;10.40;;
75971;SDS011;64651;47.540;19.088;2023-04-08T21:09:25;22.30;;;11.27;;
75971;SDS011;64651;47.540;19.088;2023-04-08T21:14:27;19.62;;;10.10;;
75971;SDS011;64651;47.540;19.088;2023-04-08T21:19:31;20.60;;;10.90;;
75971;SDS011;64651;47.540;19.088;2023-04-08T21:24:34;21.40;;;10.63;;
75971;SDS011;64651;47.540;19.088;2023-04-08T21:29:37;21.30;;;11.10;;
75971;SDS011;64651;47.540;19.088;2023-04-08T21:34:39;22.75;;;11.57;;
75971;SDS011;64651;47.540;19.088;2023-04-08T21:39:42;22.87;;;11.82;;
75971;SDS011;64651;47.540;19.088;2023-04-08T21:44:44;24.08;;;12.40;;
75971;SDS011;64651;47.540;19.088;2023-04-08T21:49:47;21.87;;;11.85;;
75971;SDS011;64651;47.540;19.088;2023-04-08T21:54:50;25.40;;;13.10;;
75971;SDS011;64651;47.540;19.088;2023-04-08T21:59:53;23.87;;;13.02;;
75971;SDS011;64651;47.540;19.088;2023-04-08T22:04:55;23.05;;;12.00;;
75971;SDS011;64651;47.540;19.088;2023-04-08T22:09:59;22.85;;;11.73;;
75971;SDS011;64651;47.540;19.088;2023-04-08T22:15:02;21.65;;;11.05;;
75971;SDS011;64651;47.540;19.088;2023-04-08T22:20:05;21.17;;;11.30;;
75971;SDS011;64651;47.540;19.088;2023-04-08T22:25:08;22.70;;;10.77;;
75971;SDS011;64651;47.540;19.088;2023-04-08T22:30:10;22.30;;;11.02;;
75971;SDS011;64651;47.540;19.088;2023-04-08T22:35:12;21.90;;;10.73;;
75971;SDS011;64651;47.540;19.088;2023-04-08T22:40:15;23.05;;;11.38;;
75971;SDS011;64651;47.540;19.088;2023-04-08T22:45:17;21.67;;;11.40;;
75971;SDS011;64651;47.540;19.088;2023-04-08T22:50:19;22.50;;;12.00;;
75971;SDS011;64651;47.540;19.088;2023-04-08T22:55:23;24.77;;;12.40;;
75971;SDS011;64651;47.540;19.088;2023-04-08T23:00:27;22.70;;;12.25;;
75971;SDS011;64651;47.540;19.088;2023-04-08T23:05:30;23.00;;;11.40;;
75971;SDS011;64651;47.540;19.088;2023-04-08T23:10:32;23.93;;;12.10;;
75971;SDS011;64651;47.540;19.088;2023-04-08T23:15:34;24.55;;;12.52;;
75971;SDS011;64651;47.540;19.088;2023-04-08T23:20:36;26.23;;;12.85;;
75971;SDS011;64651;47.540;19.088;2023-04-08T23:25:39;26.45;;;13.05;;
75971;SDS011;64651;47.540;19.088;2023-04-08T23:30:41;24.15;;;13.07;;
75971;SDS011;64651;47.540;19.088;2023-04-08T23:35:43;24.80;;;12.87;;
75971;SDS011;64651;47.540;19.088;2023-04-08T23:40:45;26.75;;;13.40;;
75971;SDS011;64651;47.540;19.088;2023-04-08T23:45:48;24.83;;;12.32;;
75971;SDS011;64651;47.540;19.088;2023-04-08T23:50:50;22.92;;;11.95;;
75971;SDS011;64651;47.540;19.088;2023-04-08T23:55:53;23.85;;;12.77;;
